Okabena, Minnesota
Current Conditions -  °F | °C
As of 2:55 PM on Friday 19 Dec 2014 (Local Time) from KOTG Reporting Station
Overcast Overcast  
Wind Chill: 18°   Ceiling: 1000
Heat Index: 30°   Visibility: 7mi
Dew Point: 27°   Wind: 17mph
Humidity: 86%   Direction: 190°S
Pressure: 30.1"   Gusts: 21mph
Location:  43.74°N, 95.32°W
Report Text: KOTG 192055Z AUTO 19015G18KT 7SM OVC010 M01/M03 A3010 RMK AO1 57014
Loading
Personal Weather Stations






























Interactive Weather Map New forecast layout! Learn more

10-Day Weather Forecast

Advertisements
Track Severe Weather on mobile